sensor_id;sensor_type;location;lat;lon;timestamp;temperature;humidity
67147;DHT22;70072;52.036;5.558;2024-01-11T00:00:41;15.70;59.30
67147;DHT22;70072;52.036;5.558;2024-01-11T00:03:07;15.60;59.20
67147;DHT22;70072;52.036;5.558;2024-01-11T00:05:33;15.70;59.30
67147;DHT22;70072;52.036;5.558;2024-01-11T00:08:00;15.70;59.30
67147;DHT22;70072;52.036;5.558;2024-01-11T00:10:26;15.60;59.20
67147;DHT22;70072;52.036;5.558;2024-01-11T00:12:52;15.60;59.20
67147;DHT22;70072;52.036;5.558;2024-01-11T00:15:17;15.60;59.20
67147;DHT22;70072;52.036;5.558;2024-01-11T00:17:43;15.60;59.20
67147;DHT22;70072;52.036;5.558;2024-01-11T00:20:09;15.70;59.30
67147;DHT22;70072;52.036;5.558;2024-01-11T00:22:36;15.70;59.20
67147;DHT22;70072;52.036;5.558;2024-01-11T00:25:02;15.60;59.20
67147;DHT22;70072;52.036;5.558;2024-01-11T00:27:28;15.60;59.10
67147;DHT22;70072;52.036;5.558;2024-01-11T00:29:53;15.60;59.20
67147;DHT22;70072;52.036;5.558;2024-01-11T00:32:19;15.70;59.20
67147;DHT22;70072;52.036;5.558;2024-01-11T00:34:47;15.60;59.20
67147;DHT22;70072;52.036;5.558;2024-01-11T00:37:12;15.60;59.10
67147;DHT22;70072;52.036;5.558;2024-01-11T00:39:38;15.60;59.10
67147;DHT22;70072;52.036;5.558;2024-01-11T00:42:04;15.60;59.10
67147;DHT22;70072;52.036;5.558;2024-01-11T00:44:29;15.60;59.80
67147;DHT22;70072;52.036;5.558;2024-01-11T00:46:55;15.60;59.10
67147;DHT22;70072;52.036;5.558;2024-01-11T00:49:21;15.60;59.10
67147;DHT22;70072;52.036;5.558;2024-01-11T00:51:47;15.60;59.10
67147;DHT22;70072;52.036;5.558;2024-01-11T00:54:12;15.60;59.10
67147;DHT22;70072;52.036;5.558;2024-01-11T00:56:38;15.60;59.10
67147;DHT22;70072;52.036;5.558;2024-01-11T00:59:04;15.60;59.00
67147;DHT22;70072;52.036;5.558;2024-01-11T01:01:29;15.60;59.10
67147;DHT22;70072;52.036;5.558;2024-01-11T01:03:55;15.60;59.00
67147;DHT22;70072;52.036;5.558;2024-01-11T01:06:21;15.60;59.00
67147;DHT22;70072;52.036;5.558;2024-01-11T01:08:49;15.60;59.00
67147;DHT22;70072;52.036;5.558;2024-01-11T01:11:14;15.60;59.00
67147;DHT22;70072;52.036;5.558;2024-01-11T01:13:40;15.60;59.00
67147;DHT22;70072;52.036;5.558;2024-01-11T01:16:05;15.60;58.90
67147;DHT22;70072;52.036;5.558;2024-01-11T01:18:31;15.60;59.00
67147;DHT22;70072;52.036;5.558;2024-01-11T01:20:57;15.60;59.00
67147;DHT22;70072;52.036;5.558;2024-01-11T01:23:22;15.60;58.90
67147;DHT22;70072;52.036;5.558;2024-01-11T01:25:48;15.60;58.90
67147;DHT22;70072;52.036;5.558;2024-01-11T01:28:14;15.60;58.90
67147;DHT22;70072;52.036;5.558;2024-01-11T01:30:40;15.60;58.90
67147;DHT22;70072;52.036;5.558;2024-01-11T01:33:05;15.60;58.90
67147;DHT22;70072;52.036;5.558;2024-01-11T01:35:31;15.60;58.90
67147;DHT22;70072;52.036;5.558;2024-01-11T01:37:57;15.60;58.80
67147;DHT22;70072;52.036;5.558;2024-01-11T01:40:22;15.60;58.90
67147;DHT22;70072;52.036;5.558;2024-01-11T01:42:58;15.60;58.90
67147;DHT22;70072;52.036;5.558;2024-01-11T01:45:24;15.50;58.70
67147;DHT22;70072;52.036;5.558;2024-01-11T01:47:49;15.60;58.80
67147;DHT22;70072;52.036;5.558;2024-01-11T01:50:17;15.60;58.80
67147;DHT22;70072;52.036;5.558;2024-01-11T01:52:45;15.50;58.80
67147;DHT22;70072;52.036;5.558;2024-01-11T01:55:12;15.60;58.80
67147;DHT22;70072;52.036;5.558;2024-01-11T01:57:40;15.60;58.80
67147;DHT22;70072;52.036;5.558;2024-01-11T02:00:09;15.60;58.80
67147;DHT22;70072;52.036;5.558;2024-01-11T02:02:38;15.50;58.80
67147;DHT22;70072;52.036;5.558;2024-01-11T02:05:06;15.50;59.50
67147;DHT22;70072;52.036;5.558;2024-01-11T02:07:35;15.50;58.70
67147;DHT22;70072;52.036;5.558;2024-01-11T02:10:01;15.50;58.70
67147;DHT22;70072;52.036;5.558;2024-01-11T02:12:28;15.50;58.70
67147;DHT22;70072;52.036;5.558;2024-01-11T02:14:54;15.50;58.70
67147;DHT22;70072;52.036;5.558;2024-01-11T02:17:20;15.50;58.70
67147;DHT22;70072;52.036;5.558;2024-01-11T02:19:48;15.50;58.70
67147;DHT22;70072;52.036;5.558;2024-01-11T02:22:23;15.50;58.70
67147;DHT22;70072;52.036;5.558;2024-01-11T02:24:52;15.50;58.60
67147;DHT22;70072;52.036;5.558;2024-01-11T02:27:18;15.50;58.70
67147;DHT22;70072;52.036;5.558;2024-01-11T02:29:44;15.50;58.60
67147;DHT22;70072;52.036;5.558;2024-01-11T02:32:12;15.50;58.60
67147;DHT22;70072;52.036;5.558;2024-01-11T02:34:38;15.50;58.60
67147;DHT22;70072;52.036;5.558;2024-01-11T02:37:05;15.50;58.60
67147;DHT22;70072;52.036;5.558;2024-01-11T02:39:31;15.50;58.60
67147;DHT22;70072;52.036;5.558;2024-01-11T02:41:57;15.50;58.60
67147;DHT22;70072;52.036;5.558;2024-01-11T02:44:23;15.50;58.60
67147;DHT22;70072;52.036;5.558;2024-01-11T02:46:49;15.50;58.60
67147;DHT22;70072;52.036;5.558;2024-01-11T02:49:15;15.50;58.60
67147;DHT22;70072;52.036;5.558;2024-01-11T02:51:40;15.50;58.60
67147;DHT22;70072;52.036;5.558;2024-01-11T02:54:06;15.50;58.50
67147;DHT22;70072;52.036;5.558;2024-01-11T02:56:32;15.40;58.50
67147;DHT22;70072;52.036;5.558;2024-01-11T02:59:00;15.50;58.50
67147;DHT22;70072;52.036;5.558;2024-01-11T03:01:26;15.50;58.50
67147;DHT22;70072;52.036;5.558;2024-01-11T03:03:51;15.40;58.50
67147;DHT22;70072;52.036;5.558;2024-01-11T03:06:18;15.50;59.20
67147;DHT22;70072;52.036;5.558;2024-01-11T03:08:47;15.40;58.50
67147;DHT22;70072;52.036;5.558;2024-01-11T03:11:14;15.40;58.50
67147;DHT22;70072;52.036;5.558;2024-01-11T03:13:39;15.40;58.40
67147;DHT22;70072;52.036;5.558;2024-01-11T03:16:07;15.40;58.40
67147;DHT22;70072;52.036;5.558;2024-01-11T03:18:33;15.40;58.40
67147;DHT22;70072;52.036;5.558;2024-01-11T03:20:59;15.40;58.40
67147;DHT22;70072;52.036;5.558;2024-01-11T03:23:24;15.40;58.40
67147;DHT22;70072;52.036;5.558;2024-01-11T03:25:55;15.40;58.40
67147;DHT22;70072;52.036;5.558;2024-01-11T03:28:20;15.40;58.40
67147;DHT22;70072;52.036;5.558;2024-01-11T03:30:46;15.40;58.40
67147;DHT22;70072;52.036;5.558;2024-01-11T03:33:12;15.40;58.40
67147;DHT22;70072;52.036;5.558;2024-01-11T03:35:37;15.40;59.10
67147;DHT22;70072;52.036;5.558;2024-01-11T03:38:06;15.40;58.40
67147;DHT22;70072;52.036;5.558;2024-01-11T03:40:32;15.40;58.40
67147;DHT22;70072;52.036;5.558;2024-01-11T03:42:57;15.40;58.40
67147;DHT22;70072;52.036;5.558;2024-01-11T03:45:23;15.40;58.30
67147;DHT22;70072;52.036;5.558;2024-01-11T03:47:49;15.40;58.30
67147;DHT22;70072;52.036;5.558;2024-01-11T03:50:14;15.40;58.30
67147;DHT22;70072;52.036;5.558;2024-01-11T03:52:40;15.40;59.00
67147;DHT22;70072;52.036;5.558;2024-01-11T03:55:06;15.40;58.30
67147;DHT22;70072;52.036;5.558;2024-01-11T03:57:31;15.40;58.30
67147;DHT22;70072;52.036;5.558;2024-01-11T03:59:58;15.40;58.30
67147;DHT22;70072;52.036;5.558;2024-01-11T04:02:24;15.40;58.30
67147;DHT22;70072;52.036;5.558;2024-01-11T04:04:50;15.40;58.30
67147;DHT22;70072;52.036;5.558;2024-01-11T04:07:16;15.40;58.30
67147;DHT22;70072;52.036;5.558;2024-01-11T04:09:42;15.40;58.30
67147;DHT22;70072;52.036;5.558;2024-01-11T04:12:08;15.40;58.20
67147;DHT22;70072;52.036;5.558;2024-01-11T04:14:37;15.40;58.20
67147;DHT22;70072;52.036;5.558;2024-01-11T04:17:02;15.40;58.20
67147;DHT22;70072;52.036;5.558;2024-01-11T04:19:28;15.40;58.30
67147;DHT22;70072;52.036;5.558;2024-01-11T04:21:54;15.30;58.10
67147;DHT22;70072;52.036;5.558;2024-01-11T04:24:22;15.40;58.20
67147;DHT22;70072;52.036;5.558;2024-01-11T04:26:47;15.30;58.10
67147;DHT22;70072;52.036;5.558;2024-01-11T04:29:13;15.30;58.10
67147;DHT22;70072;52.036;5.558;2024-01-11T04:31:38;15.30;58.10
67147;DHT22;70072;52.036;5.558;2024-01-11T04:34:06;15.30;58.10
67147;DHT22;70072;52.036;5.558;2024-01-11T04:36:33;15.30;58.10
67147;DHT22;70072;52.036;5.558;2024-01-11T04:38:59;15.30;58.10
67147;DHT22;70072;52.036;5.558;2024-01-11T04:41:24;15.30;58.10
67147;DHT22;70072;52.036;5.558;2024-01-11T04:43:50;15.30;58.10
67147;DHT22;70072;52.036;5.558;2024-01-11T04:46:20;15.30;58.10
67147;DHT22;70072;52.036;5.558;2024-01-11T04:48:46;15.30;58.00
67147;DHT22;70072;52.036;5.558;2024-01-11T04:51:13;15.30;58.00
67147;DHT22;70072;52.036;5.558;2024-01-11T04:53:42;15.30;58.10
67147;DHT22;70072;52.036;5.558;2024-01-11T04:56:09;15.30;58.00
67147;DHT22;70072;52.036;5.558;2024-01-11T04:58:36;15.30;58.00
67147;DHT22;70072;52.036;5.558;2024-01-11T05:01:04;15.30;58.00
67147;DHT22;70072;52.036;5.558;2024-01-11T05:03:31;15.30;58.00
67147;DHT22;70072;52.036;5.558;2024-01-11T05:05:59;15.30;58.00
67147;DHT22;70072;52.036;5.558;2024-01-11T05:08:28;15.30;58.00
67147;DHT22;70072;52.036;5.558;2024-01-11T05:10:54;15.30;58.00
67147;DHT22;70072;52.036;5.558;2024-01-11T05:13:20;15.30;58.00
67147;DHT22;70072;52.036;5.558;2024-01-11T05:15:46;15.30;58.00
67147;DHT22;70072;52.036;5.558;2024-01-11T05:18:13;15.30;58.00
67147;DHT22;70072;52.036;5.558;2024-01-11T05:20:39;15.30;58.00
67147;DHT22;70072;52.036;5.558;2024-01-11T05:23:07;15.30;58.00
67147;DHT22;70072;52.036;5.558;2024-01-11T05:25:33;15.30;58.00
67147;DHT22;70072;52.036;5.558;2024-01-11T05:28:02;15.30;58.00
67147;DHT22;70072;52.036;5.558;2024-01-11T05:30:29;15.30;58.00
67147;DHT22;70072;52.036;5.558;2024-01-11T05:32:55;15.20;57.90
67147;DHT22;70072;52.036;5.558;2024-01-11T05:35:23;15.30;58.70
67147;DHT22;70072;52.036;5.558;2024-01-11T05:37:50;15.20;57.90
67147;DHT22;70072;52.036;5.558;2024-01-11T05:40:16;15.20;57.90
67147;DHT22;70072;52.036;5.558;2024-01-11T05:42:41;15.20;57.90
67147;DHT22;70072;52.036;5.558;2024-01-11T05:45:07;15.20;57.90
67147;DHT22;70072;52.036;5.558;2024-01-11T05:47:34;15.20;57.90
67147;DHT22;70072;52.036;5.558;2024-01-11T05:50:00;15.20;57.90
67147;DHT22;70072;52.036;5.558;2024-01-11T05:52:25;15.20;57.90
67147;DHT22;70072;52.036;5.558;2024-01-11T05:54:51;15.20;57.80
67147;DHT22;70072;52.036;5.558;2024-01-11T05:57:17;15.20;57.80
67147;DHT22;70072;52.036;5.558;2024-01-11T05:59:46;15.20;57.80
67147;DHT22;70072;52.036;5.558;2024-01-11T06:02:12;15.20;57.80
67147;DHT22;70072;52.036;5.558;2024-01-11T06:04:39;15.20;57.80
67147;DHT22;70072;52.036;5.558;2024-01-11T06:07:04;15.20;57.80
67147;DHT22;70072;52.036;5.558;2024-01-11T06:09:30;15.20;57.80
67147;DHT22;70072;52.036;5.558;2024-01-11T06:11:55;15.20;57.80
67147;DHT22;70072;52.036;5.558;2024-01-11T06:14:24;15.20;57.80
67147;DHT22;70072;52.036;5.558;2024-01-11T06:16:53;15.20;57.80
67147;DHT22;70072;52.036;5.558;2024-01-11T06:19:21;15.20;57.80
67147;DHT22;70072;52.036;5.558;2024-01-11T06:21:46;15.20;57.80
67147;DHT22;70072;52.036;5.558;2024-01-11T06:24:13;15.10;57.70
67147;DHT22;70072;52.036;5.558;2024-01-11T06:26:38;15.10;57.80
67147;DHT22;70072;52.036;5.558;2024-01-11T06:29:06;15.10;57.70
67147;DHT22;70072;52.036;5.558;2024-01-11T06:31:34;15.10;57.80
67147;DHT22;70072;52.036;5.558;2024-01-11T06:34:00;15.10;57.70
67147;DHT22;70072;52.036;5.558;2024-01-11T06:36:25;15.10;57.70
67147;DHT22;70072;52.036;5.558;2024-01-11T06:38:53;15.10;57.70
67147;DHT22;70072;52.036;5.558;2024-01-11T06:41:19;15.10;57.60
67147;DHT22;70072;52.036;5.558;2024-01-11T06:43:44;15.10;57.60
67147;DHT22;70072;52.036;5.558;2024-01-11T06:46:12;15.10;57.60
67147;DHT22;70072;52.036;5.558;2024-01-11T06:48:38;15.10;57.60
67147;DHT22;70072;52.036;5.558;2024-01-11T06:51:06;15.10;57.60
67147;DHT22;70072;52.036;5.558;2024-01-11T06:53:31;15.10;57.70
67147;DHT22;70072;52.036;5.558;2024-01-11T06:55:57;15.10;57.60
67147;DHT22;70072;52.036;5.558;2024-01-11T06:58:23;15.10;57.60
67147;DHT22;70072;52.036;5.558;2024-01-11T07:00:54;15.10;57.60
67147;DHT22;70072;52.036;5.558;2024-01-11T07:03:19;15.10;57.60
67147;DHT22;70072;52.036;5.558;2024-01-11T07:05:45;15.10;57.60
67147;DHT22;70072;52.036;5.558;2024-01-11T07:08:11;15.10;57.60
67147;DHT22;70072;52.036;5.558;2024-01-11T07:10:36;15.10;57.60
67147;DHT22;70072;52.036;5.558;2024-01-11T07:13:06;15.10;57.60
67147;DHT22;70072;52.036;5.558;2024-01-11T07:15:32;15.10;57.70
67147;DHT22;70072;52.036;5.558;2024-01-11T07:17:57;15.10;57.60
67147;DHT22;70072;52.036;5.558;2024-01-11T07:20:23;15.10;57.60
67147;DHT22;70072;52.036;5.558;2024-01-11T07:22:49;15.10;57.70
67147;DHT22;70072;52.036;5.558;2024-01-11T07:25:16;15.10;57.80
67147;DHT22;70072;52.036;5.558;2024-01-11T07:27:42;15.10;57.90
67147;DHT22;70072;52.036;5.558;2024-01-11T07:30:09;15.10;57.90
67147;DHT22;70072;52.036;5.558;2024-01-11T07:32:35;15.10;58.00
67147;DHT22;70072;52.036;5.558;2024-01-11T07:35:00;15.00;57.90
67147;DHT22;70072;52.036;5.558;2024-01-11T07:37:26;15.10;58.20
67147;DHT22;70072;52.036;5.558;2024-01-11T07:39:53;15.10;58.30
67147;DHT22;70072;52.036;5.558;2024-01-11T07:42:19;15.10;59.20
67147;DHT22;70072;52.036;5.558;2024-01-11T07:44:45;15.10;58.50
67147;DHT22;70072;52.036;5.558;2024-01-11T07:47:10;15.00;58.40
67147;DHT22;70072;52.036;5.558;2024-01-11T07:49:36;15.00;58.40
67147;DHT22;70072;52.036;5.558;2024-01-11T07:52:02;15.10;58.50
67147;DHT22;70072;52.036;5.558;2024-01-11T07:54:28;15.00;58.30
67147;DHT22;70072;52.036;5.558;2024-01-11T07:56:53;15.00;58.30
67147;DHT22;70072;52.036;5.558;2024-01-11T07:59:19;15.10;58.60
67147;DHT22;70072;52.036;5.558;2024-01-11T08:01:45;15.10;58.70
67147;DHT22;70072;52.036;5.558;2024-01-11T08:04:10;15.10;58.90
67147;DHT22;70072;52.036;5.558;2024-01-11T08:06:36;15.10;58.90
67147;DHT22;70072;52.036;5.558;2024-01-11T08:09:03;15.10;58.90
67147;DHT22;70072;52.036;5.558;2024-01-11T08:11:30;15.10;58.90
67147;DHT22;70072;52.036;5.558;2024-01-11T08:13:58;15.10;58.90
67147;DHT22;70072;52.036;5.558;2024-01-11T08:16:24;15.10;58.80
67147;DHT22;70072;52.036;5.558;2024-01-11T08:18:50;15.10;58.80
67147;DHT22;70072;52.036;5.558;2024-01-11T08:21:18;15.10;58.80
67147;DHT22;70072;52.036;5.558;2024-01-11T08:23:45;15.10;58.80
67147;DHT22;70072;52.036;5.558;2024-01-11T08:26:14;15.10;58.70
67147;DHT22;70072;52.036;5.558;2024-01-11T08:28:40;15.10;58.70
67147;DHT22;70072;52.036;5.558;2024-01-11T08:31:07;15.10;58.70
67147;DHT22;70072;52.036;5.558;2024-01-11T08:33:33;15.10;58.70
67147;DHT22;70072;52.036;5.558;2024-01-11T08:35:59;15.10;58.60
67147;DHT22;70072;52.036;5.558;2024-01-11T08:38:24;15.10;58.60
67147;DHT22;70072;52.036;5.558;2024-01-11T08:40:50;15.10;58.60
67147;DHT22;70072;52.036;5.558;2024-01-11T08:43:17;15.10;58.60
67147;DHT22;70072;52.036;5.558;2024-01-11T08:45:45;15.10;58.50
67147;DHT22;70072;52.036;5.558;2024-01-11T08:48:13;15.10;58.60
67147;DHT22;70072;52.036;5.558;2024-01-11T08:50:38;15.10;58.50
67147;DHT22;70072;52.036;5.558;2024-01-11T08:53:04;15.10;58.50
67147;DHT22;70072;52.036;5.558;2024-01-11T08:55:30;15.10;58.50
67147;DHT22;70072;52.036;5.558;2024-01-11T08:57:57;15.10;58.50
67147;DHT22;70072;52.036;5.558;2024-01-11T09:00:23;15.10;58.50
67147;DHT22;70072;52.036;5.558;2024-01-11T09:02:49;15.10;58.50
67147;DHT22;70072;52.036;5.558;2024-01-11T09:05:15;15.10;58.50
67147;DHT22;70072;52.036;5.558;2024-01-11T09:07:43;15.10;58.50
67147;DHT22;70072;52.036;5.558;2024-01-11T09:10:10;15.10;58.50
67147;DHT22;70072;52.036;5.558;2024-01-11T09:12:40;15.10;58.40
67147;DHT22;70072;52.036;5.558;2024-01-11T09:15:06;15.10;58.40
67147;DHT22;70072;52.036;5.558;2024-01-11T09:17:33;15.10;58.40
67147;DHT22;70072;52.036;5.558;2024-01-11T09:19:58;15.10;58.40
67147;DHT22;70072;52.036;5.558;2024-01-11T09:22:24;15.10;58.30
67147;DHT22;70072;52.036;5.558;2024-01-11T09:24:50;15.10;58.30
67147;DHT22;70072;52.036;5.558;2024-01-11T09:27:18;15.20;58.40
67147;DHT22;70072;52.036;5.558;2024-01-11T09:29:44;15.10;58.30
67147;DHT22;70072;52.036;5.558;2024-01-11T09:32:10;15.20;58.30
67147;DHT22;70072;52.036;5.558;2024-01-11T09:34:36;15.20;58.30
67147;DHT22;70072;52.036;5.558;2024-01-11T09:37:02;15.10;58.20
67147;DHT22;70072;52.036;5.558;2024-01-11T09:39:29;15.20;58.30
67147;DHT22;70072;52.036;5.558;2024-01-11T09:42:07;15.20;58.30
67147;DHT22;70072;52.036;5.558;2024-01-11T09:44:37;15.20;58.30
67147;DHT22;70072;52.036;5.558;2024-01-11T09:47:06;15.20;58.20
67147;DHT22;70072;52.036;5.558;2024-01-11T09:49:33;15.20;58.20
67147;DHT22;70072;52.036;5.558;2024-01-11T09:52:04;15.20;58.20
67147;DHT22;70072;52.036;5.558;2024-01-11T09:54:30;15.20;58.20
67147;DHT22;70072;52.036;5.558;2024-01-11T09:56:59;15.20;58.10
67147;DHT22;70072;52.036;5.558;2024-01-11T09:59:25;15.20;58.10
67147;DHT22;70072;52.036;5.558;2024-01-11T10:01:51;15.20;58.10
67147;DHT22;70072;52.036;5.558;2024-01-11T10:04:18;15.20;58.10
67147;DHT22;70072;52.036;5.558;2024-01-11T10:06:46;15.20;58.10
67147;DHT22;70072;52.036;5.558;2024-01-11T10:09:14;15.20;58.10
67147;DHT22;70072;52.036;5.558;2024-01-11T10:11:39;15.20;58.10
67147;DHT22;70072;52.036;5.558;2024-01-11T10:14:07;15.20;58.10
67147;DHT22;70072;52.036;5.558;2024-01-11T10:16:33;15.20;58.10
67147;DHT22;70072;52.036;5.558;2024-01-11T10:19:01;15.20;58.10
67147;DHT22;70072;52.036;5.558;2024-01-11T10:21:27;15.20;58.10
67147;DHT22;70072;52.036;5.558;2024-01-11T10:23:57;15.20;58.10
67147;DHT22;70072;52.036;5.558;2024-01-11T10:26:26;15.20;58.10
67147;DHT22;70072;52.036;5.558;2024-01-11T10:28:51;15.20;58.10
67147;DHT22;70072;52.036;5.558;2024-01-11T10:31:17;15.20;58.00
67147;DHT22;70072;52.036;5.558;2024-01-11T10:33:45;15.30;58.10
67147;DHT22;70072;52.036;5.558;2024-01-11T10:36:11;15.30;58.00
67147;DHT22;70072;52.036;5.558;2024-01-11T10:38:39;15.30;58.10
67147;DHT22;70072;52.036;5.558;2024-01-11T10:41:06;15.30;58.00
67147;DHT22;70072;52.036;5.558;2024-01-11T10:43:32;15.20;58.00
67147;DHT22;70072;52.036;5.558;2024-01-11T10:46:02;15.20;58.00
67147;DHT22;70072;52.036;5.558;2024-01-11T10:48:31;15.30;58.10
67147;DHT22;70072;52.036;5.558;2024-01-11T10:51:01;15.30;58.80
67147;DHT22;70072;52.036;5.558;2024-01-11T10:53:46;15.30;58.10
67147;DHT22;70072;52.036;5.558;2024-01-11T10:56:19;15.30;58.00
67147;DHT22;70072;52.036;5.558;2024-01-11T10:58:46;15.30;58.10
67147;DHT22;70072;52.036;5.558;2024-01-11T11:01:12;15.30;58.10
67147;DHT22;70072;52.036;5.558;2024-01-11T11:03:39;15.30;58.10
67147;DHT22;70072;52.036;5.558;2024-01-11T11:06:09;15.30;58.10
67147;DHT22;70072;52.036;5.558;2024-01-11T11:08:37;15.30;58.10
67147;DHT22;70072;52.036;5.558;2024-01-11T11:11:03;15.30;58.10
67147;DHT22;70072;52.036;5.558;2024-01-11T11:13:33;15.30;58.10
67147;DHT22;70072;52.036;5.558;2024-01-11T11:16:02;15.30;58.10
67147;DHT22;70072;52.036;5.558;2024-01-11T11:18:34;15.30;58.10
67147;DHT22;70072;52.036;5.558;2024-01-11T11:21:11;15.30;58.10
67147;DHT22;70072;52.036;5.558;2024-01-11T11:23:39;15.30;58.80
67147;DHT22;70072;52.036;5.558;2024-01-11T11:26:06;15.30;58.10
67147;DHT22;70072;52.036;5.558;2024-01-11T11:28:35;15.30;58.20
67147;DHT22;70072;52.036;5.558;2024-01-11T11:31:02;15.30;58.20
67147;DHT22;70072;52.036;5.558;2024-01-11T11:33:33;15.30;58.10
67147;DHT22;70072;52.036;5.558;2024-01-11T11:36:03;15.30;58.10
67147;DHT22;70072;52.036;5.558;2024-01-11T11:38:32;15.30;58.10
67147;DHT22;70072;52.036;5.558;2024-01-11T11:41:01;15.30;58.10
67147;DHT22;70072;52.036;5.558;2024-01-11T11:43:28;15.30;58.10
67147;DHT22;70072;52.036;5.558;2024-01-11T11:45:57;15.30;58.10
67147;DHT22;70072;52.036;5.558;2024-01-11T11:51:14;15.30;58.10
67147;DHT22;70072;52.036;5.558;2024-01-11T11:53:40;15.30;58.10
67147;DHT22;70072;52.036;5.558;2024-01-11T11:56:07;15.30;58.10
67147;DHT22;70072;52.036;5.558;2024-01-11T11:58:35;15.30;58.10
67147;DHT22;70072;52.036;5.558;2024-01-11T12:01:02;15.30;58.10
67147;DHT22;70072;52.036;5.558;2024-01-11T12:03:35;15.30;58.10
67147;DHT22;70072;52.036;5.558;2024-01-11T12:06:07;15.30;58.10
67147;DHT22;70072;52.036;5.558;2024-01-11T12:08:34;15.30;58.10
67147;DHT22;70072;52.036;5.558;2024-01-11T12:11:02;15.40;58.20
67147;DHT22;70072;52.036;5.558;2024-01-11T12:13:31;15.30;58.10
67147;DHT22;70072;52.036;5.558;2024-01-11T12:15:57;15.30;58.10
67147;DHT22;70072;52.036;5.558;2024-01-11T12:18:23;15.30;58.20
67147;DHT22;70072;52.036;5.558;2024-01-11T12:20:51;15.40;58.20
67147;DHT22;70072;52.036;5.558;2024-01-11T12:23:20;15.30;58.10
67147;DHT22;70072;52.036;5.558;2024-01-11T12:25:46;15.30;58.20
67147;DHT22;70072;52.036;5.558;2024-01-11T12:28:12;15.40;58.20
67147;DHT22;70072;52.036;5.558;2024-01-11T12:30:38;15.40;58.20
67147;DHT22;70072;52.036;5.558;2024-01-11T12:33:04;15.40;58.20
67147;DHT22;70072;52.036;5.558;2024-01-11T12:35:31;15.40;58.20
67147;DHT22;70072;52.036;5.558;2024-01-11T12:38:15;15.40;58.20
67147;DHT22;70072;52.036;5.558;2024-01-11T12:40:43;15.40;58.10
67147;DHT22;70072;52.036;5.558;2024-01-11T12:43:11;15.40;58.20
67147;DHT22;70072;52.036;5.558;2024-01-11T12:45:40;15.40;58.20
67147;DHT22;70072;52.036;5.558;2024-01-11T12:48:09;15.40;58.20
67147;DHT22;70072;52.036;5.558;2024-01-11T12:50:35;15.40;58.90
67147;DHT22;70072;52.036;5.558;2024-01-11T12:53:15;15.40;58.20
67147;DHT22;70072;52.036;5.558;2024-01-11T12:56:03;15.40;58.20
67147;DHT22;70072;52.036;5.558;2024-01-11T12:58:29;15.40;58.20
67147;DHT22;70072;52.036;5.558;2024-01-11T13:00:55;15.40;58.20
67147;DHT22;70072;52.036;5.558;2024-01-11T13:03:21;15.40;58.20
67147;DHT22;70072;52.036;5.558;2024-01-11T13:05:47;15.40;58.20
67147;DHT22;70072;52.036;5.558;2024-01-11T13:08:13;15.40;58.30
67147;DHT22;70072;52.036;5.558;2024-01-11T13:10:39;15.50;59.00
67147;DHT22;70072;52.036;5.558;2024-01-11T13:13:05;15.40;58.20
67147;DHT22;70072;52.036;5.558;2024-01-11T13:15:31;15.50;58.30
67147;DHT22;70072;52.036;5.558;2024-01-11T13:17:58;15.50;58.30
67147;DHT22;70072;52.036;5.558;2024-01-11T13:20:24;15.40;58.30
67147;DHT22;70072;52.036;5.558;2024-01-11T13:23:11;15.50;58.40
67147;DHT22;70072;52.036;5.558;2024-01-11T13:25:36;15.50;58.30
67147;DHT22;70072;52.036;5.558;2024-01-11T13:28:02;15.50;58.40
67147;DHT22;70072;52.036;5.558;2024-01-11T13:30:31;15.50;58.40
67147;DHT22;70072;52.036;5.558;2024-01-11T13:32:58;15.50;58.40
67147;DHT22;70072;52.036;5.558;2024-01-11T13:35:24;15.50;58.40
67147;DHT22;70072;52.036;5.558;2024-01-11T13:37:50;15.50;58.40
67147;DHT22;70072;52.036;5.558;2024-01-11T13:40:19;15.50;58.40
67147;DHT22;70072;52.036;5.558;2024-01-11T13:42:45;15.50;58.40
67147;DHT22;70072;52.036;5.558;2024-01-11T13:45:11;15.50;58.40
67147;DHT22;70072;52.036;5.558;2024-01-11T13:47:40;15.50;58.40
67147;DHT22;70072;52.036;5.558;2024-01-11T13:50:06;15.50;59.10
67147;DHT22;70072;52.036;5.558;2024-01-11T13:52:34;15.50;58.40
67147;DHT22;70072;52.036;5.558;2024-01-11T13:54:59;15.50;58.40
67147;DHT22;70072;52.036;5.558;2024-01-11T13:57:25;15.50;58.40
67147;DHT22;70072;52.036;5.558;2024-01-11T13:59:51;15.50;58.40
67147;DHT22;70072;52.036;5.558;2024-01-11T14:02:17;15.60;58.50
67147;DHT22;70072;52.036;5.558;2024-01-11T14:04:43;15.50;58.40
67147;DHT22;70072;52.036;5.558;2024-01-11T14:07:08;15.50;59.20
67147;DHT22;70072;52.036;5.558;2024-01-11T14:09:34;15.50;58.50
67147;DHT22;70072;52.036;5.558;2024-01-11T14:12:00;15.60;58.50
67147;DHT22;70072;52.036;5.558;2024-01-11T14:14:28;15.60;58.50
67147;DHT22;70072;52.036;5.558;2024-01-11T14:16:54;15.50;59.20
67147;DHT22;70072;52.036;5.558;2024-01-11T14:19:19;15.50;58.50
67147;DHT22;70072;52.036;5.558;2024-01-11T14:21:45;15.60;58.60
67147;DHT22;70072;52.036;5.558;2024-01-11T14:24:10;15.60;58.60
67147;DHT22;70072;52.036;5.558;2024-01-11T14:26:36;15.60;58.60
67147;DHT22;70072;52.036;5.558;2024-01-11T14:29:02;15.60;58.60
67147;DHT22;70072;52.036;5.558;2024-01-11T14:31:28;15.60;58.60
67147;DHT22;70072;52.036;5.558;2024-01-11T14:33:54;15.50;58.60
67147;DHT22;70072;52.036;5.558;2024-01-11T14:36:20;15.60;59.40
67147;DHT22;70072;52.036;5.558;2024-01-11T14:38:46;15.60;58.60
67147;DHT22;70072;52.036;5.558;2024-01-11T14:41:12;15.60;58.60
67147;DHT22;70072;52.036;5.558;2024-01-11T14:43:38;15.60;58.60
67147;DHT22;70072;52.036;5.558;2024-01-11T14:46:06;15.60;58.70
67147;DHT22;70072;52.036;5.558;2024-01-11T14:48:35;15.60;58.70
67147;DHT22;70072;52.036;5.558;2024-01-11T14:51:03;15.60;58.70
67147;DHT22;70072;52.036;5.558;2024-01-11T14:53:30;15.60;58.70
67147;DHT22;70072;52.036;5.558;2024-01-11T14:55:55;15.60;58.70
67147;DHT22;70072;52.036;5.558;2024-01-11T14:58:21;15.60;58.70
67147;DHT22;70072;52.036;5.558;2024-01-11T15:00:47;15.60;58.70
67147;DHT22;70072;52.036;5.558;2024-01-11T15:03:13;15.60;58.70
67147;DHT22;70072;52.036;5.558;2024-01-11T15:05:38;15.60;59.40
67147;DHT22;70072;52.036;5.558;2024-01-11T15:08:06;15.60;58.80
67147;DHT22;70072;52.036;5.558;2024-01-11T15:10:35;15.60;58.80
67147;DHT22;70072;52.036;5.558;2024-01-11T15:13:00;15.60;58.70
67147;DHT22;70072;52.036;5.558;2024-01-11T15:15:26;15.60;58.80
67147;DHT22;70072;52.036;5.558;2024-01-11T15:17:54;15.60;58.80
67147;DHT22;70072;52.036;5.558;2024-01-11T15:20:20;15.60;59.50
67147;DHT22;70072;52.036;5.558;2024-01-11T15:22:47;15.60;58.80
67147;DHT22;70072;52.036;5.558;2024-01-11T15:25:14;15.60;58.80
67147;DHT22;70072;52.036;5.558;2024-01-11T15:27:39;15.60;58.80
67147;DHT22;70072;52.036;5.558;2024-01-11T15:30:05;15.60;58.90